We seek to understand and document all radio transmissions, legal and otherwise, as part of the radio listening hobby. We do not encourage any radio operations contrary to regulations. Always consult with the appropriate authorities if you have questions concerning what is permissible in your locale.

Author Topic: MARSCOMM METAR REPORT 6994.6 USB (RTTY) 0106 UTC 17 SEP 2022  (Read 458 times)

Offline ~SIGINT~

  • DXing Phenomena
  • *******
  • Posts: 3994
  • N.E. Canada (FN08)
  • .ılılı..ılılı..ılılı..ılılı..ılılı..ılılı.
    • View Profile
    • Milspec Communication Canada
MARSCOMM METAR REPORT 6994.6 USB (RTTY) 0106 UTC 17 SEP 2022
« on: September 17, 2022, 0123 UTC »
MARSCOMM METAR REPORT 6994.6 USB (RTTY) 01:06 UTC 17 SEP 2022

01:06 UTC - MARSCOM with MET broadcast in RTTY; 1275/850 75 baud; could hear some Windows sounds during the beginning of the transmission;
01:10 UTC - End of broadcast.

JJXRRZCG
F$43("(s:$(s6(ss?4'!4-,$!4s:4,2'9 TSNO VISNO RAY12PVPINO RWY12$
NO
TAF FOUND FOR KOFF

KNHK 170052Z 00000KT 10SM CLR 19/14 A3019 RMK AO2 SLP222 T01890139 $

OAF KNHK 1623/1723 VRB05KT 9999 SKC QNH3013INS
  BECMG 1716/1718 13007KT 9999 FEW045 FEW280 QNH3016INS AUTOMATED
SENSOR METWATCH 1703 TIL 1711 T17/1710Z T28/1721Z FN20066

KSKA 170056Z 24010KT 10SM SCT060 18/06 A2990 RMK AO2A SLP124 T01830062
$

TAF KSKA 161900Z 1619/1801 21012G20KT 9999 SCT050 BKN200 QNH2991INS
WND 20012KT AFT 1703
  BECMG 1704/1706 20009KT 9999 FEW050 SCT200 QNH2990INS WND VRB06
KT AFT 1713
  BECMG 1717/1718 03009KT 9999 SCT200 QNH2979INS TX20/1623Z TN07/
1711Z

KWRI 170056Z 21003KT 10SM CLR 17/13 A3017 RMK AO2A SLP216 T01690134
$

TAF KWRI 161800Z 1618/1724 33006KT 9999 FEW250 QNH3011INS
  BECMG 1621/1622 VRB03KT 9999 SKC QNH3011INS
  BECMG 1704/1705 VRB04KT 9999 BKN040 QNH3018INS
  BECMG 1713/1714 07007KT 9999 BKN035 QNH3016INS TX26/1619Z TN13/
1710Z

KLNK WQRZ 17015G21KT 10SM FEW060 27/17 A2988 RMK AO2 SLP110 T;67016
7

KLNK 162320Z 170 OQUWR 16009KT P6UM FEW060
  FM170700 16004KT P6SM SCT040 XKN080 WS020/21042KT
  FM171100 18007KT P6SM SCT040 BKN080
  FM171600 18011G20KT P6SMHSCT040 SCT200 X
  FM172000 21013G23KT P6SM SOPRP SCT150

KSUU 170056Z AUTO 24018KT 10SM CLR 27/11 A2984 RMK AO2 SLP111 T;650110
$

OWPSUU 161900Z 1619/180123009KT 9999 SKC QNH2998IVPOX30/1623Z TN13/
1713Z

NNNN

CONTACT MARSCOMM ON
11098.5 VOR 7545.0HZ
UPPERBAND (USB)

DE MARSCOMM NORTAST03



RSPduo | End-fed longwire antenna
« Last Edit: September 17, 2022, 0323 UTC by ~SIGINT~ »

 

HFUnderground T-Shirt
HFUnderground T-Shirt
by MitchellTimeDesigns